sensor_id;sensor_type;location;lat;lon;timestamp;temperature;humidity
56256;DHT22;57229;51.432;-2.598;2024-03-08T00:00:18;6.20;99.90
56256;DHT22;57229;51.432;-2.598;2024-03-08T00:02:45;5.30;99.90
56256;DHT22;57229;51.432;-2.598;2024-03-08T00:05:23;5.80;99.90
56256;DHT22;57229;51.432;-2.598;2024-03-08T00:08:21;5.20;99.90
56256;DHT22;57229;51.432;-2.598;2024-03-08T00:11:21;5.20;99.90
56256;DHT22;57229;51.432;-2.598;2024-03-08T00:14:06;5.20;99.90
56256;DHT22;57229;51.432;-2.598;2024-03-08T00:16:36;5.20;99.90
56256;DHT22;57229;51.432;-2.598;2024-03-08T00:19:06;5.20;99.90
56256;DHT22;57229;51.432;-2.598;2024-03-08T00:21:33;5.30;99.90
56256;DHT22;57229;51.432;-2.598;2024-03-08T00:24:08;5.40;99.90
56256;DHT22;57229;51.432;-2.598;2024-03-08T00:26:34;5.30;99.90
56256;DHT22;57229;51.432;-2.598;2024-03-08T00:32:02;5.50;99.90
56256;DHT22;57229;51.432;-2.598;2024-03-08T00:34:32;5.50;99.90
56256;DHT22;57229;51.432;-2.598;2024-03-08T00:37:01;5.60;99.90
56256;DHT22;57229;51.432;-2.598;2024-03-08T00:39:32;5.60;99.90
56256;DHT22;57229;51.432;-2.598;2024-03-08T00:45:07;5.70;99.90
56256;DHT22;57229;51.432;-2.598;2024-03-08T00:47:33;5.70;99.90
56256;DHT22;57229;51.432;-2.598;2024-03-08T00:50:23;5.60;99.90
56256;DHT22;57229;51.432;-2.598;2024-03-08T00:52:52;5.60;99.90
56256;DHT22;57229;51.432;-2.598;2024-03-08T00:55:19;5.50;99.90
56256;DHT22;57229;51.432;-2.598;2024-03-08T00:57:44;5.40;99.90
56256;DHT22;57229;51.432;-2.598;2024-03-08T01:00:10;6.70;99.90
56256;DHT22;57229;51.432;-2.598;2024-03-08T01:02:38;5.30;99.90
56256;DHT22;57229;51.432;-2.598;2024-03-08T01:05:08;5.30;99.90
56256;DHT22;57229;51.432;-2.598;2024-03-08T01:07:37;6.50;99.90
56256;DHT22;57229;51.432;-2.598;2024-03-08T01:10:04;5.20;99.90
56256;DHT22;57229;51.432;-2.598;2024-03-08T01:12:35;5.20;99.90
56256;DHT22;57229;51.432;-2.598;2024-03-08T01:15:01;6.60;99.90
56256;DHT22;57229;51.432;-2.598;2024-03-08T01:17:27;6.90;99.90
56256;DHT22;57229;51.432;-2.598;2024-03-08T01:20:11;6.80;99.90
56256;DHT22;57229;51.432;-2.598;2024-03-08T01:22:40;5.10;99.90
56256;DHT22;57229;51.432;-2.598;2024-03-08T01:25:06;5.90;99.90
56256;DHT22;57229;51.432;-2.598;2024-03-08T01:27:31;5.00;99.90
56256;DHT22;57229;51.432;-2.598;2024-03-08T01:29:57;5.10;99.90
56256;DHT22;57229;51.432;-2.598;2024-03-08T01:32:24;5.00;99.90
56256;DHT22;57229;51.432;-2.598;2024-03-08T01:34:50;6.80;99.90
56256;DHT22;57229;51.432;-2.598;2024-03-08T01:37:16;6.40;99.90
56256;DHT22;57229;51.432;-2.598;2024-03-08T01:39:41;5.00;99.90
56256;DHT22;57229;51.432;-2.598;2024-03-08T01:42:07;5.00;99.90
56256;DHT22;57229;51.432;-2.598;2024-03-08T01:44:33;6.30;99.90
56256;DHT22;57229;51.432;-2.598;2024-03-08T01:47:02;5.70;99.90
56256;DHT22;57229;51.432;-2.598;2024-03-08T01:49:35;5.00;99.90
56256;DHT22;57229;51.432;-2.598;2024-03-08T01:52:07;4.30;99.90
56256;DHT22;57229;51.432;-2.598;2024-03-08T01:54:35;4.90;99.90
56256;DHT22;57229;51.432;-2.598;2024-03-08T01:57:03;4.90;99.90
56256;DHT22;57229;51.432;-2.598;2024-03-08T01:59:31;4.80;99.90
56256;DHT22;57229;51.432;-2.598;2024-03-08T02:02:01;4.80;99.90
56256;DHT22;57229;51.432;-2.598;2024-03-08T02:04:40;4.80;99.90
56256;DHT22;57229;51.432;-2.598;2024-03-08T02:07:25;6.40;99.90
56256;DHT22;57229;51.432;-2.598;2024-03-08T02:09:51;4.70;99.90
56256;DHT22;57229;51.432;-2.598;2024-03-08T02:12:17;5.90;99.90
56256;DHT22;57229;51.432;-2.598;2024-03-08T02:14:49;6.60;99.90
56256;DHT22;57229;51.432;-2.598;2024-03-08T02:17:16;4.70;99.90
56256;DHT22;57229;51.432;-2.598;2024-03-08T02:19:41;4.70;99.90
56256;DHT22;57229;51.432;-2.598;2024-03-08T02:22:07;6.30;99.90
56256;DHT22;57229;51.432;-2.598;2024-03-08T02:24:33;6.50;99.90
56256;DHT22;57229;51.432;-2.598;2024-03-08T02:26:59;6.00;99.90
56256;DHT22;57229;51.432;-2.598;2024-03-08T02:29:24;6.40;99.90
56256;DHT22;57229;51.432;-2.598;2024-03-08T02:31:53;5.50;99.90
56256;DHT22;57229;51.432;-2.598;2024-03-08T02:34:19;5.00;99.90
56256;DHT22;57229;51.432;-2.598;2024-03-08T02:36:45;6.10;99.90
56256;DHT22;57229;51.432;-2.598;2024-03-08T02:39:13;5.80;99.90
56256;DHT22;57229;51.432;-2.598;2024-03-08T02:41:42;5.30;99.90
56256;DHT22;57229;51.432;-2.598;2024-03-08T02:44:08;5.00;99.90
56256;DHT22;57229;51.432;-2.598;2024-03-08T02:46:34;5.90;99.90
56256;DHT22;57229;51.432;-2.598;2024-03-08T02:49:04;5.90;99.90
56256;DHT22;57229;51.432;-2.598;2024-03-08T02:51:31;5.00;99.90
56256;DHT22;57229;51.432;-2.598;2024-03-08T02:54:00;6.70;99.90
56256;DHT22;57229;51.432;-2.598;2024-03-08T02:56:26;6.20;99.90
56256;DHT22;57229;51.432;-2.598;2024-03-08T02:58:52;5.00;99.90
56256;DHT22;57229;51.432;-2.598;2024-03-08T03:01:18;6.10;99.90
56256;DHT22;57229;51.432;-2.598;2024-03-08T03:03:47;4.40;99.90
56256;DHT22;57229;51.432;-2.598;2024-03-08T03:06:14;5.00;99.90
56256;DHT22;57229;51.432;-2.598;2024-03-08T03:08:40;5.60;99.90
56256;DHT22;57229;51.432;-2.598;2024-03-08T03:11:12;5.00;99.90
56256;DHT22;57229;51.432;-2.598;2024-03-08T03:13:39;5.00;99.90
56256;DHT22;57229;51.432;-2.598;2024-03-08T03:16:05;6.20;99.90
56256;DHT22;57229;51.432;-2.598;2024-03-08T03:18:32;5.00;99.90
56256;DHT22;57229;51.432;-2.598;2024-03-08T03:20:58;5.00;99.90
56256;DHT22;57229;51.432;-2.598;2024-03-08T03:23:24;5.20;99.90
56256;DHT22;57229;51.432;-2.598;2024-03-08T03:25:52;5.50;99.90
56256;DHT22;57229;51.432;-2.598;2024-03-08T03:28:18;5.00;99.90
56256;DHT22;57229;51.432;-2.598;2024-03-08T03:30:47;5.00;99.90
56256;DHT22;57229;51.432;-2.598;2024-03-08T03:33:12;5.40;99.90
56256;DHT22;57229;51.432;-2.598;2024-03-08T03:35:40;7.00;99.90
56256;DHT22;57229;51.432;-2.598;2024-03-08T03:38:07;6.80;99.90
56256;DHT22;57229;51.432;-2.598;2024-03-08T03:40:39;5.50;99.90
56256;DHT22;57229;51.432;-2.598;2024-03-08T03:43:08;5.10;99.90
56256;DHT22;57229;51.432;-2.598;2024-03-08T03:45:36;6.30;99.90
56256;DHT22;57229;51.432;-2.598;2024-03-08T03:48:07;5.10;99.90
56256;DHT22;57229;51.432;-2.598;2024-03-08T03:50:36;5.10;99.90
56256;DHT22;57229;51.432;-2.598;2024-03-08T03:53:03;6.90;99.90
56256;DHT22;57229;51.432;-2.598;2024-03-08T03:55:29;4.30;99.90
56256;DHT22;57229;51.432;-2.598;2024-03-08T03:57:57;5.50;99.90
56256;DHT22;57229;51.432;-2.598;2024-03-08T04:00:30;5.00;99.90
56256;DHT22;57229;51.432;-2.598;2024-03-08T04:03:01;5.00;99.90
56256;DHT22;57229;51.432;-2.598;2024-03-08T04:05:27;5.10;99.90
56256;DHT22;57229;51.432;-2.598;2024-03-08T04:07:53;6.00;99.90
56256;DHT22;57229;51.432;-2.598;2024-03-08T04:10:19;5.10;99.90
56256;DHT22;57229;51.432;-2.598;2024-03-08T04:12:48;5.10;99.90
56256;DHT22;57229;51.432;-2.598;2024-03-08T04:15:14;5.10;99.90
56256;DHT22;57229;51.432;-2.598;2024-03-08T04:20:22;5.10;99.90
56256;DHT22;57229;51.432;-2.598;2024-03-08T04:22:56;5.20;99.90
56256;DHT22;57229;51.432;-2.598;2024-03-08T04:25:23;6.50;99.90
56256;DHT22;57229;51.432;-2.598;2024-03-08T04:27:51;5.30;99.90
56256;DHT22;57229;51.432;-2.598;2024-03-08T04:30:18;5.30;99.90
56256;DHT22;57229;51.432;-2.598;2024-03-08T04:32:44;6.50;99.90
56256;DHT22;57229;51.432;-2.598;2024-03-08T04:35:16;5.40;99.90
56256;DHT22;57229;51.432;-2.598;2024-03-08T04:37:43;5.40;99.90
56256;DHT22;57229;51.432;-2.598;2024-03-08T04:40:13;6.10;99.90
56256;DHT22;57229;51.432;-2.598;2024-03-08T04:42:42;4.40;99.90
56256;DHT22;57229;51.432;-2.598;2024-03-08T04:45:11;5.50;99.90
56256;DHT22;57229;51.432;-2.598;2024-03-08T04:47:37;5.50;99.90
56256;DHT22;57229;51.432;-2.598;2024-03-08T04:50:03;5.50;99.90
56256;DHT22;57229;51.432;-2.598;2024-03-08T04:52:29;5.60;99.90
56256;DHT22;57229;51.432;-2.598;2024-03-08T04:54:55;5.60;99.90
56256;DHT22;57229;51.432;-2.598;2024-03-08T04:57:21;5.60;99.90
56256;DHT22;57229;51.432;-2.598;2024-03-08T04:59:46;5.60;99.90
56256;DHT22;57229;51.432;-2.598;2024-03-08T05:02:12;6.50;99.90
56256;DHT22;57229;51.432;-2.598;2024-03-08T05:04:37;5.70;99.90
56256;DHT22;57229;51.432;-2.598;2024-03-08T05:07:03;5.70;99.90
56256;DHT22;57229;51.432;-2.598;2024-03-08T05:09:29;5.80;99.90
56256;DHT22;57229;51.432;-2.598;2024-03-08T05:11:57;6.10;99.90
56256;DHT22;57229;51.432;-2.598;2024-03-08T05:14:25;5.80;99.90
56256;DHT22;57229;51.432;-2.598;2024-03-08T05:16:50;6.30;99.90
56256;DHT22;57229;51.432;-2.598;2024-03-08T05:19:20;5.80;99.90
56256;DHT22;57229;51.432;-2.598;2024-03-08T05:21:46;5.90;99.90
56256;DHT22;57229;51.432;-2.598;2024-03-08T05:24:12;5.80;99.90
56256;DHT22;57229;51.432;-2.598;2024-03-08T05:26:39;5.80;99.90
56256;DHT22;57229;51.432;-2.598;2024-03-08T05:29:04;5.80;99.90
56256;DHT22;57229;51.432;-2.598;2024-03-08T05:34:12;5.80;99.90
56256;DHT22;57229;51.432;-2.598;2024-03-08T05:36:40;5.80;99.90
56256;DHT22;57229;51.432;-2.598;2024-03-08T05:39:06;6.80;99.90
56256;DHT22;57229;51.432;-2.598;2024-03-08T05:41:32;6.50;99.90
56256;DHT22;57229;51.432;-2.598;2024-03-08T05:43:58;6.10;99.90
56256;DHT22;57229;51.432;-2.598;2024-03-08T05:46:23;5.80;99.90
56256;DHT22;57229;51.432;-2.598;2024-03-08T05:48:49;5.70;99.90
56256;DHT22;57229;51.432;-2.598;2024-03-08T05:51:14;5.90;99.90
56256;DHT22;57229;51.432;-2.598;2024-03-08T05:53:40;5.70;99.90
56256;DHT22;57229;51.432;-2.598;2024-03-08T05:56:06;5.70;99.90
56256;DHT22;57229;51.432;-2.598;2024-03-08T05:58:31;5.60;99.90
56256;DHT22;57229;51.432;-2.598;2024-03-08T06:00:57;5.60;99.90
56256;DHT22;57229;51.432;-2.598;2024-03-08T06:03:22;5.60;99.90
56256;DHT22;57229;51.432;-2.598;2024-03-08T06:05:49;5.50;99.90
56256;DHT22;57229;51.432;-2.598;2024-03-08T06:08:15;5.60;99.90
56256;DHT22;57229;51.432;-2.598;2024-03-08T06:10:41;5.40;99.90
56256;DHT22;57229;51.432;-2.598;2024-03-08T06:13:06;5.80;99.90
56256;DHT22;57229;51.432;-2.598;2024-03-08T06:15:32;5.40;99.90
56256;DHT22;57229;51.432;-2.598;2024-03-08T06:17:58;6.50;99.90
56256;DHT22;57229;51.432;-2.598;2024-03-08T06:20:23;5.40;99.90
56256;DHT22;57229;51.432;-2.598;2024-03-08T06:22:52;6.40;99.90
56256;DHT22;57229;51.432;-2.598;2024-03-08T06:25:18;5.70;99.90
56256;DHT22;57229;51.432;-2.598;2024-03-08T06:27:43;5.30;99.90
56256;DHT22;57229;51.432;-2.598;2024-03-08T06:30:10;5.30;99.90
56256;DHT22;57229;51.432;-2.598;2024-03-08T06:32:39;5.30;99.90
56256;DHT22;57229;51.432;-2.598;2024-03-08T06:35:05;5.30;99.90
56256;DHT22;57229;51.432;-2.598;2024-03-08T06:37:35;5.30;99.90
56256;DHT22;57229;51.432;-2.598;2024-03-08T06:40:01;5.30;99.90
56256;DHT22;57229;51.432;-2.598;2024-03-08T06:42:28;5.30;99.90
56256;DHT22;57229;51.432;-2.598;2024-03-08T06:44:54;6.60;99.90
56256;DHT22;57229;51.432;-2.598;2024-03-08T06:47:25;5.80;99.90
56256;DHT22;57229;51.432;-2.598;2024-03-08T06:49:51;5.20;99.90
56256;DHT22;57229;51.432;-2.598;2024-03-08T06:52:20;5.20;99.90
56256;DHT22;57229;51.432;-2.598;2024-03-08T06:54:47;5.20;99.90
56256;DHT22;57229;51.432;-2.598;2024-03-08T06:57:13;5.20;99.90
56256;DHT22;57229;51.432;-2.598;2024-03-08T06:59:39;5.20;99.90
56256;DHT22;57229;51.432;-2.598;2024-03-08T07:02:05;5.20;99.90
56256;DHT22;57229;51.432;-2.598;2024-03-08T07:04:34;6.70;99.90
56256;DHT22;57229;51.432;-2.598;2024-03-08T07:07:04;5.10;99.90
56256;DHT22;57229;51.432;-2.598;2024-03-08T07:09:29;5.10;99.90
56256;DHT22;57229;51.432;-2.598;2024-03-08T07:11:55;5.10;99.90
56256;DHT22;57229;51.432;-2.598;2024-03-08T07:14:24;5.10;99.90
56256;DHT22;57229;51.432;-2.598;2024-03-08T07:16:50;5.10;99.90
56256;DHT22;57229;51.432;-2.598;2024-03-08T07:19:16;5.10;99.90
56256;DHT22;57229;51.432;-2.598;2024-03-08T07:21:43;5.10;99.90
56256;DHT22;57229;51.432;-2.598;2024-03-08T07:24:10;5.90;99.90
56256;DHT22;57229;51.432;-2.598;2024-03-08T07:26:35;5.20;99.90
56256;DHT22;57229;51.432;-2.598;2024-03-08T07:29:01;6.10;99.90
56256;DHT22;57229;51.432;-2.598;2024-03-08T07:31:26;6.70;99.90
56256;DHT22;57229;51.432;-2.598;2024-03-08T07:34:04;5.30;99.90
56256;DHT22;57229;51.432;-2.598;2024-03-08T07:36:34;5.30;99.90
56256;DHT22;57229;51.432;-2.598;2024-03-08T07:39:02;6.80;99.90
56256;DHT22;57229;51.432;-2.598;2024-03-08T07:41:30;5.40;99.90
56256;DHT22;57229;51.432;-2.598;2024-03-08T07:43:56;5.50;99.90
56256;DHT22;57229;51.432;-2.598;2024-03-08T07:46:22;5.60;99.90
56256;DHT22;57229;51.432;-2.598;2024-03-08T07:48:48;5.80;99.90
56256;DHT22;57229;51.432;-2.598;2024-03-08T07:51:16;5.80;99.90
56256;DHT22;57229;51.432;-2.598;2024-03-08T07:53:43;7.40;99.90
56256;DHT22;57229;51.432;-2.598;2024-03-08T07:56:09;6.80;99.90
56256;DHT22;57229;51.432;-2.598;2024-03-08T07:58:38;6.20;99.90
56256;DHT22;57229;51.432;-2.598;2024-03-08T08:01:06;7.20;99.90
56256;DHT22;57229;51.432;-2.598;2024-03-08T08:03:31;6.00;99.90
56256;DHT22;57229;51.432;-2.598;2024-03-08T08:05:57;7.70;99.90
56256;DHT22;57229;51.432;-2.598;2024-03-08T08:08:23;7.40;99.90
56256;DHT22;57229;51.432;-2.598;2024-03-08T08:10:49;6.40;99.90
56256;DHT22;57229;51.432;-2.598;2024-03-08T08:13:15;7.30;99.90
56256;DHT22;57229;51.432;-2.598;2024-03-08T08:15:41;6.40;99.90
56256;DHT22;57229;51.432;-2.598;2024-03-08T08:18:06;6.80;99.90
56256;DHT22;57229;51.432;-2.598;2024-03-08T08:20:35;6.30;99.90
56256;DHT22;57229;51.432;-2.598;2024-03-08T08:23:00;6.50;99.90
56256;DHT22;57229;51.432;-2.598;2024-03-08T08:25:26;6.50;99.90
56256;DHT22;57229;51.432;-2.598;2024-03-08T08:27:52;6.70;99.90
56256;DHT22;57229;51.432;-2.598;2024-03-08T08:30:19;6.80;99.90
56256;DHT22;57229;51.432;-2.598;2024-03-08T08:32:45;6.60;99.90
56256;DHT22;57229;51.432;-2.598;2024-03-08T08:35:12;6.70;99.90
56256;DHT22;57229;51.432;-2.598;2024-03-08T08:37:41;6.90;99.90
56256;DHT22;57229;51.432;-2.598;2024-03-08T08:40:08;7.10;99.90
56256;DHT22;57229;51.432;-2.598;2024-03-08T08:42:40;7.00;99.90
56256;DHT22;57229;51.432;-2.598;2024-03-08T08:45:07;7.20;99.90
56256;DHT22;57229;51.432;-2.598;2024-03-08T08:47:36;7.30;99.90
56256;DHT22;57229;51.432;-2.598;2024-03-08T08:50:02;7.80;99.90
56256;DHT22;57229;51.432;-2.598;2024-03-08T08:52:30;7.50;99.90
56256;DHT22;57229;51.432;-2.598;2024-03-08T08:54:56;7.60;99.90
56256;DHT22;57229;51.432;-2.598;2024-03-08T08:57:22;7.70;99.90
56256;DHT22;57229;51.432;-2.598;2024-03-08T08:59:47;7.70;99.90
56256;DHT22;57229;51.432;-2.598;2024-03-08T09:02:13;7.70;99.90
56256;DHT22;57229;51.432;-2.598;2024-03-08T09:04:42;8.00;99.90
56256;DHT22;57229;51.432;-2.598;2024-03-08T09:07:08;8.10;99.90
56256;DHT22;57229;51.432;-2.598;2024-03-08T09:09:34;8.30;99.90
56256;DHT22;57229;51.432;-2.598;2024-03-08T09:12:00;8.10;99.90
56256;DHT22;57229;51.432;-2.598;2024-03-08T09:14:26;8.20;99.90
56256;DHT22;57229;51.432;-2.598;2024-03-08T09:16:52;8.30;99.90
56256;DHT22;57229;51.432;-2.598;2024-03-08T09:19:18;8.30;99.90
56256;DHT22;57229;51.432;-2.598;2024-03-08T09:21:45;8.30;99.90
56256;DHT22;57229;51.432;-2.598;2024-03-08T09:24:10;8.30;99.90
56256;DHT22;57229;51.432;-2.598;2024-03-08T09:26:36;8.60;99.90
56256;DHT22;57229;51.432;-2.598;2024-03-08T09:29:02;8.90;99.90
56256;DHT22;57229;51.432;-2.598;2024-03-08T09:31:28;9.10;99.90
56256;DHT22;57229;51.432;-2.598;2024-03-08T09:33:53;9.20;99.90
56256;DHT22;57229;51.432;-2.598;2024-03-08T09:36:19;9.50;99.90
56256;DHT22;57229;51.432;-2.598;2024-03-08T09:38:45;10.00;99.90
56256;DHT22;57229;51.432;-2.598;2024-03-08T09:41:11;10.10;99.90
56256;DHT22;57229;51.432;-2.598;2024-03-08T09:43:38;10.50;99.90
56256;DHT22;57229;51.432;-2.598;2024-03-08T09:46:04;11.10;99.90
56256;DHT22;57229;51.432;-2.598;2024-03-08T09:48:32;11.50;99.30
56256;DHT22;57229;51.432;-2.598;2024-03-08T09:50:57;11.60;99.50
56256;DHT22;57229;51.432;-2.598;2024-03-08T09:53:23;11.80;99.00
56256;DHT22;57229;51.432;-2.598;2024-03-08T09:55:49;11.60;98.40
56256;DHT22;57229;51.432;-2.598;2024-03-08T09:58:16;11.30;98.70
56256;DHT22;57229;51.432;-2.598;2024-03-08T10:00:53;11.40;99.20
56256;DHT22;57229;51.432;-2.598;2024-03-08T10:03:20;11.40;99.70
56256;DHT22;57229;51.432;-2.598;2024-03-08T10:05:45;11.90;98.60
56256;DHT22;57229;51.432;-2.598;2024-03-08T10:08:12;12.70;97.80
56256;DHT22;57229;51.432;-2.598;2024-03-08T10:10:39;13.00;96.20
56256;DHT22;57229;51.432;-2.598;2024-03-08T10:13:09;13.20;96.30
56256;DHT22;57229;51.432;-2.598;2024-03-08T10:15:36;13.40;95.90
56256;DHT22;57229;51.432;-2.598;2024-03-08T10:18:04;13.70;95.80
56256;DHT22;57229;51.432;-2.598;2024-03-08T10:20:32;13.90;94.60
56256;DHT22;57229;51.432;-2.598;2024-03-08T10:23:04;13.50;94.60
56256;DHT22;57229;51.432;-2.598;2024-03-08T10:25:34;13.40;95.00
56256;DHT22;57229;51.432;-2.598;2024-03-08T10:28:02;13.60;95.10
56256;DHT22;57229;51.432;-2.598;2024-03-08T10:30:29;14.00;94.70
56256;DHT22;57229;51.432;-2.598;2024-03-08T10:32:55;14.80;93.70
56256;DHT22;57229;51.432;-2.598;2024-03-08T10:35:20;15.50;92.90
56256;DHT22;57229;51.432;-2.598;2024-03-08T10:37:48;15.80;91.90
56256;DHT22;57229;51.432;-2.598;2024-03-08T10:40:19;16.20;91.20
56256;DHT22;57229;51.432;-2.598;2024-03-08T10:42:53;15.80;91.50
56256;DHT22;57229;51.432;-2.598;2024-03-08T10:45:35;16.10;91.40
56256;DHT22;57229;51.432;-2.598;2024-03-08T10:50:38;16.20;90.70
56256;DHT22;57229;51.432;-2.598;2024-03-08T10:53:06;16.30;90.40
56256;DHT22;57229;51.432;-2.598;2024-03-08T10:55:33;17.00;89.60
56256;DHT22;57229;51.432;-2.598;2024-03-08T10:57:59;18.00;86.70
56256;DHT22;57229;51.432;-2.598;2024-03-08T11:00:26;18.00;85.80
56256;DHT22;57229;51.432;-2.598;2024-03-08T11:09:46;16.00;86.90
56256;DHT22;57229;51.432;-2.598;2024-03-08T11:12:27;15.00;88.90
56256;DHT22;57229;51.432;-2.598;2024-03-08T11:15:16;13.90;91.30
56256;DHT22;57229;51.432;-2.598;2024-03-08T11:17:49;13.20;92.30
56256;DHT22;57229;51.432;-2.598;2024-03-08T11:20:37;13.00;93.10
56256;DHT22;57229;51.432;-2.598;2024-03-08T11:23:04;11.20;93.10
56256;DHT22;57229;51.432;-2.598;2024-03-08T11:25:45;12.50;94.00
56256;DHT22;57229;51.432;-2.598;2024-03-08T11:28:25;12.60;93.80
56256;DHT22;57229;51.432;-2.598;2024-03-08T11:33:32;13.10;93.20
56256;DHT22;57229;51.432;-2.598;2024-03-08T11:36:13;13.50;93.30
56256;DHT22;57229;51.432;-2.598;2024-03-08T11:38:53;14.10;92.50
56256;DHT22;57229;51.432;-2.598;2024-03-08T11:41:26;15.00;91.30
56256;DHT22;57229;51.432;-2.598;2024-03-08T11:44:07;15.50;90.20
56256;DHT22;57229;51.432;-2.598;2024-03-08T11:46:46;15.10;90.10
56256;DHT22;57229;51.432;-2.598;2024-03-08T11:49:28;14.30;90.80
56256;DHT22;57229;51.432;-2.598;2024-03-08T11:51:58;14.00;91.60
56256;DHT22;57229;51.432;-2.598;2024-03-08T11:54:31;14.30;91.50
56256;DHT22;57229;51.432;-2.598;2024-03-08T11:57:24;15.30;91.10
56256;DHT22;57229;51.432;-2.598;2024-03-08T11:59:55;17.20;88.10
56256;DHT22;57229;51.432;-2.598;2024-03-08T12:02:31;17.60;83.60
56256;DHT22;57229;51.432;-2.598;2024-03-08T12:04:58;17.10;83.00
56256;DHT22;57229;51.432;-2.598;2024-03-08T12:07:31;15.80;86.40
56256;DHT22;57229;51.432;-2.598;2024-03-08T12:10:29;14.60;89.00
56256;DHT22;57229;51.432;-2.598;2024-03-08T12:12:57;14.90;90.40
56256;DHT22;57229;51.432;-2.598;2024-03-08T12:15:25;14.60;89.50
56256;DHT22;57229;51.432;-2.598;2024-03-08T12:17:52;14.80;90.70
56256;DHT22;57229;51.432;-2.598;2024-03-08T12:20:25;14.80;88.50
56256;DHT22;57229;51.432;-2.598;2024-03-08T12:22:55;15.00;90.40
56256;DHT22;57229;51.432;-2.598;2024-03-08T12:25:30;15.70;89.10
56256;DHT22;57229;51.432;-2.598;2024-03-08T12:28:15;16.00;88.70
56256;DHT22;57229;51.432;-2.598;2024-03-08T12:31:01;15.90;88.10
56256;DHT22;57229;51.432;-2.598;2024-03-08T12:36:25;16.60;88.60
56256;DHT22;57229;51.432;-2.598;2024-03-08T12:42:28;18.60;84.00
56256;DHT22;57229;51.432;-2.598;2024-03-08T12:45:00;20.30;79.10
56256;DHT22;57229;51.432;-2.598;2024-03-08T12:47:26;21.10;76.90
56256;DHT22;57229;51.432;-2.598;2024-03-08T12:49:54;22.20;74.90
56256;DHT22;57229;51.432;-2.598;2024-03-08T12:52:20;22.60;71.50
56256;DHT22;57229;51.432;-2.598;2024-03-08T12:54:45;22.30;72.00
56256;DHT22;57229;51.432;-2.598;2024-03-08T12:57:13;22.40;70.00
56256;DHT22;57229;51.432;-2.598;2024-03-08T12:59:39;22.70;70.70
56256;DHT22;57229;51.432;-2.598;2024-03-08T13:02:05;23.00;70.50
56256;DHT22;57229;51.432;-2.598;2024-03-08T13:04:36;22.70;69.20
56256;DHT22;57229;51.432;-2.598;2024-03-08T13:07:02;22.10;69.70
56256;DHT22;57229;51.432;-2.598;2024-03-08T13:09:28;21.00;70.80
56256;DHT22;57229;51.432;-2.598;2024-03-08T13:11:54;20.60;72.20
56256;DHT22;57229;51.432;-2.598;2024-03-08T13:14:21;20.40;72.40
56256;DHT22;57229;51.432;-2.598;2024-03-08T13:16:47;20.50;73.50
56256;DHT22;57229;51.432;-2.598;2024-03-08T13:19:13;21.50;72.60
56256;DHT22;57229;51.432;-2.598;2024-03-08T13:21:39;22.40;69.50
56256;DHT22;57229;51.432;-2.598;2024-03-08T13:24:05;23.10;67.30
56256;DHT22;57229;51.432;-2.598;2024-03-08T13:26:31;22.80;66.80
56256;DHT22;57229;51.432;-2.598;2024-03-08T13:28:59;21.80;68.00
56256;DHT22;57229;51.432;-2.598;2024-03-08T13:31:25;21.40;69.30
56256;DHT22;57229;51.432;-2.598;2024-03-08T13:34:06;21.50;69.50
56256;DHT22;57229;51.432;-2.598;2024-03-08T13:36:33;22.10;67.60
56256;DHT22;57229;51.432;-2.598;2024-03-08T13:39:04;21.80;68.10
56256;DHT22;57229;51.432;-2.598;2024-03-08T13:41:40;21.40;68.40
56256;DHT22;57229;51.432;-2.598;2024-03-08T13:44:07;20.70;68.00
56256;DHT22;57229;51.432;-2.598;2024-03-08T13:46:33;19.80;69.90
56256;DHT22;57229;51.432;-2.598;2024-03-08T13:49:05;19.30;71.60
56256;DHT22;57229;51.432;-2.598;2024-03-08T13:51:51;18.60;72.10
56256;DHT22;57229;51.432;-2.598;2024-03-08T13:54:56;18.60;73.70
56256;DHT22;57229;51.432;-2.598;2024-03-08T13:57:22;18.00;73.00
56256;DHT22;57229;51.432;-2.598;2024-03-08T13:59:56;17.60;74.30
56256;DHT22;57229;51.432;-2.598;2024-03-08T14:02:27;17.10;74.20
56256;DHT22;57229;51.432;-2.598;2024-03-08T14:04:59;16.30;74.40
56256;DHT22;57229;51.432;-2.598;2024-03-08T14:07:27;17.90;75.40
56256;DHT22;57229;51.432;-2.598;2024-03-08T14:09:54;19.30;74.20
56256;DHT22;57229;51.432;-2.598;2024-03-08T14:12:20;19.80;70.40
56256;DHT22;57229;51.432;-2.598;2024-03-08T14:14:46;19.60;70.30
56256;DHT22;57229;51.432;-2.598;2024-03-08T14:17:11;19.60;72.00
56256;DHT22;57229;51.432;-2.598;2024-03-08T14:19:42;19.40;70.90
56256;DHT22;57229;51.432;-2.598;2024-03-08T14:22:08;19.40;72.80
56256;DHT22;57229;51.432;-2.598;2024-03-08T14:24:36;19.50;72.60
56256;DHT22;57229;51.432;-2.598;2024-03-08T14:27:02;19.60;71.20
56256;DHT22;57229;51.432;-2.598;2024-03-08T14:29:29;20.10;71.80
56256;DHT22;57229;51.432;-2.598;2024-03-08T14:31:58;20.40;69.50
56256;DHT22;57229;51.432;-2.598;2024-03-08T14:34:33;20.40;70.90
56256;DHT22;57229;51.432;-2.598;2024-03-08T14:36:59;20.50;69.70
56256;DHT22;57229;51.432;-2.598;2024-03-08T14:39:37;20.50;69.00
56256;DHT22;57229;51.432;-2.598;2024-03-08T14:42:03;20.00;71.10
56256;DHT22;57229;51.432;-2.598;2024-03-08T14:44:29;20.30;71.90
56256;DHT22;57229;51.432;-2.598;2024-03-08T14:46:59;20.50;69.80
56256;DHT22;57229;51.432;-2.598;2024-03-08T14:49:25;20.20;70.00
56256;DHT22;57229;51.432;-2.598;2024-03-08T14:51:55;19.60;70.20
56256;DHT22;57229;51.432;-2.598;2024-03-08T14:54:23;19.10;70.30
56256;DHT22;57229;51.432;-2.598;2024-03-08T14:56:49;18.80;72.30
56256;DHT22;57229;51.432;-2.598;2024-03-08T14:59:17;18.30;72.80
56256;DHT22;57229;51.432;-2.598;2024-03-08T15:01:45;18.30;71.50
56256;DHT22;57229;51.432;-2.598;2024-03-08T15:04:11;18.10;73.60
56256;DHT22;57229;51.432;-2.598;2024-03-08T15:06:40;18.00;73.60
56256;DHT22;57229;51.432;-2.598;2024-03-08T15:09:08;18.00;72.70
56256;DHT22;57229;51.432;-2.598;2024-03-08T15:11:45;18.30;73.50
56256;DHT22;57229;51.432;-2.598;2024-03-08T15:14:11;18.70;72.50
56256;DHT22;57229;51.432;-2.598;2024-03-08T15:16:40;19.00;71.80
56256;DHT22;57229;51.432;-2.598;2024-03-08T15:19:07;18.80;72.50
56256;DHT22;57229;51.432;-2.598;2024-03-08T15:21:32;18.00;71.90
56256;DHT22;57229;51.432;-2.598;2024-03-08T15:24:02;17.20;73.70
56256;DHT22;57229;51.432;-2.598;2024-03-08T15:26:31;16.70;75.70
56256;DHT22;57229;51.432;-2.598;2024-03-08T15:28:57;16.60;76.30
56256;DHT22;57229;51.432;-2.598;2024-03-08T15:31:23;16.60;75.60
56256;DHT22;57229;51.432;-2.598;2024-03-08T15:33:53;16.60;75.60
56256;DHT22;57229;51.432;-2.598;2024-03-08T15:36:26;16.90;75.90
56256;DHT22;57229;51.432;-2.598;2024-03-08T15:38:56;17.40;74.50
56256;DHT22;57229;51.432;-2.598;2024-03-08T15:41:25;17.90;72.90
56256;DHT22;57229;51.432;-2.598;2024-03-08T15:43:52;18.30;71.90
56256;DHT22;57229;51.432;-2.598;2024-03-08T15:46:18;18.80;71.50
56256;DHT22;57229;51.432;-2.598;2024-03-08T15:48:48;19.40;71.50
56256;DHT22;57229;51.432;-2.598;2024-03-08T15:51:20;19.70;70.40
56256;DHT22;57229;51.432;-2.598;2024-03-08T15:53:47;19.80;70.90
56256;DHT22;57229;51.432;-2.598;2024-03-08T15:56:18;19.60;70.60
56256;DHT22;57229;51.432;-2.598;2024-03-08T15:58:45;19.50;70.20
56256;DHT22;57229;51.432;-2.598;2024-03-08T16:01:11;19.30;69.90
56256;DHT22;57229;51.432;-2.598;2024-03-08T16:03:37;18.80;71.20